createdAt,value
2023-01-03T00:01:37.441Z,100456.84
2023-01-03T00:04:06.047Z,100454.19
2023-01-03T00:06:36.131Z,100461.75
2023-01-03T00:09:09.423Z,100465.03
2023-01-03T00:11:56.077Z,100463.97
2023-01-03T00:14:27.020Z,100460.31
2023-01-03T00:16:57.723Z,100377.44
2023-01-03T00:19:27.368Z,100459.94
2023-01-03T00:21:55.645Z,100464.09
2023-01-03T00:24:25.004Z,100457.88
2023-01-03T00:26:53.006Z,100447.88
2023-01-03T00:29:20.890Z,100463.81
2023-01-03T00:31:49.048Z,100468.78
2023-01-03T00:34:17.149Z,100471.38
2023-01-03T00:36:45.080Z,100472.19
2023-01-03T00:39:13.278Z,100481.69
2023-01-03T00:41:42.936Z,100457.53
2023-01-03T00:44:10.822Z,100481.31
2023-01-03T00:46:39.008Z,100485.50
2023-01-03T00:49:07.728Z,100491.44
2023-01-03T00:51:37.907Z,100504.16
2023-01-03T00:54:07.739Z,100481.16
2023-01-03T00:56:38.803Z,100500.59
2023-01-03T00:59:09.376Z,100501.38
2023-01-03T01:01:46.227Z,100499.69
2023-01-03T01:04:18.935Z,100505.28
2023-01-03T01:06:50.238Z,100508.66
2023-01-03T01:09:20.154Z,100512.03
2023-01-03T01:11:48.089Z,100516.28
2023-01-03T01:14:21.532Z,100510.34
2023-01-03T01:16:51.322Z,100517.28
2023-01-03T01:19:20.926Z,100502.22
2023-01-03T01:21:49.069Z,100521.44
2023-01-03T01:24:18.286Z,100522.34
2023-01-03T01:26:46.614Z,100527.59
2023-01-03T01:29:15.593Z,100530.19
2023-01-03T01:31:45.904Z,100539.50
2023-01-03T01:34:14.688Z,100526.03
2023-01-03T01:36:43.652Z,100516.31
2023-01-03T01:39:13.222Z,100548.22
2023-01-03T01:41:59.190Z,100548.94
2023-01-03T01:44:53.300Z,100559.06
2023-01-03T01:47:45.955Z,100553.50
2023-01-03T01:50:20.480Z,100554.19
2023-01-03T01:52:52.192Z,100542.69
2023-01-03T01:55:24.800Z,100551.63
2023-01-03T01:57:53.584Z,100558.47
2023-01-03T02:00:22.005Z,100561.94
2023-01-03T02:02:54.166Z,100562.44
2023-01-03T02:05:23.524Z,100563.31
2023-01-03T02:07:52.667Z,100563.53
2023-01-03T02:10:29.509Z,100415.59
2023-01-03T02:13:07.396Z,100573.13
2023-01-03T02:16:14.252Z,100564.22
2023-01-03T02:18:53.209Z,100570.25
2023-01-03T02:22:04.199Z,100570.16
2023-01-03T02:25:05.993Z,100570.88
2023-01-03T02:28:08.206Z,100584.66
2023-01-03T02:30:40.813Z,100556.69
2023-01-03T02:33:24.008Z,100584.66
2023-01-03T02:36:01.617Z,100568.38
2023-01-03T02:38:40.835Z,100587.41
2023-01-03T02:41:21.790Z,100588.31
2023-01-03T02:43:55.335Z,100591.88
2023-01-03T02:46:29.163Z,100588.31
2023-01-03T02:49:00.712Z,100594.25
2023-01-03T02:51:33.633Z,100593.47
2023-01-03T02:54:04.994Z,100577.22
2023-01-03T02:56:38.809Z,100579.59
2023-01-03T02:59:12.320Z,100599.22
2023-01-03T03:01:44.962Z,100604.09
2023-01-03T03:04:15.225Z,100606.66
2023-01-03T03:06:48.764Z,100600.09
2023-01-03T03:09:16.793Z,100601.00
2023-01-03T03:12:02.704Z,100610.44
2023-01-03T03:14:36.147Z,100617.38
2023-01-03T03:17:12.366Z,100619.94
2023-01-03T03:20:01.747Z,100615.97
2023-01-03T03:23:09.794Z,100617.56
2023-01-03T03:25:43.595Z,100636.69
2023-01-03T03:28:33.789Z,100618.63
2023-01-03T03:31:11.017Z,100641.75
2023-01-03T03:33:45.794Z,100643.25
2023-01-03T03:36:17.410Z,100646.72
2023-01-03T03:38:46.380Z,100650.09
2023-01-03T03:41:42.764Z,100651.97
2023-01-03T03:44:38.907Z,100669.22
2023-01-03T03:47:14.336Z,100661.38
2023-01-03T03:49:47.046Z,100675.38
2023-01-03T03:52:18.130Z,100678.06
2023-01-03T03:54:49.898Z,100616.16
2023-01-03T03:57:24.459Z,100687.28
2023-01-03T03:59:57.289Z,100635.41
2023-01-03T04:02:29.348Z,100698.56
2023-01-03T04:05:01.771Z,100678.13
2023-01-03T04:07:29.933Z,100667.41
2023-01-03T04:09:57.879Z,100706.78
2023-01-03T04:12:25.831Z,100698.56
2023-01-03T04:14:53.835Z,100717.09
2023-01-03T04:17:21.823Z,100721.38
2023-01-03T04:19:49.635Z,100725.84
2023-01-03T04:22:18.983Z,100731.19
2023-01-03T04:24:46.974Z,100737.25
2023-01-03T04:27:14.910Z,100738.94
2023-01-03T04:29:42.938Z,100741.50
2023-01-03T04:32:11.346Z,100740.63
2023-01-03T04:34:39.215Z,100752.50
2023-01-03T04:37:07.398Z,100725.72
2023-01-03T04:39:36.632Z,100748.84
2023-01-03T04:42:24.911Z,100753.88
2023-01-03T04:44:51.870Z,100761.03
2023-01-03T04:47:20.057Z,100764.41
2023-01-03T04:49:48.539Z,100762.31
2023-01-03T04:52:17.296Z,100774.81
2023-01-03T04:54:46.532Z,100772.34
2023-01-03T04:57:14.384Z,100774.13
2023-01-03T04:59:42.564Z,100765.09
2023-01-03T05:02:10.551Z,100786.91
2023-01-03T05:04:38.609Z,100800.72
2023-01-03T05:07:06.716Z,100805.06
2023-01-03T05:09:34.828Z,100798.91
2023-01-03T05:12:04.176Z,100809.66
2023-01-03T05:14:32.178Z,100820.84
2023-01-03T05:17:00.040Z,100814.81
2023-01-03T05:19:28.077Z,100820.66
2023-01-03T05:22:13.585Z,100822.34
2023-01-03T05:24:59.090Z,100809.50
2023-01-03T05:27:29.413Z,100762.34
2023-01-03T05:29:57.673Z,100837.00
2023-01-03T05:32:25.560Z,100839.47
2023-01-03T05:34:53.619Z,100836.13
2023-01-03T05:37:23.114Z,100839.47
2023-01-03T05:39:50.984Z,100850.59
2023-01-03T05:42:18.960Z,100849.69
2023-01-03T05:44:48.592Z,100859.09
2023-01-03T05:47:16.535Z,100865.16
2023-01-03T05:49:44.438Z,100867.63
2023-01-03T05:52:12.406Z,100869.31
2023-01-03T05:54:40.264Z,100858.69
2023-01-03T05:57:08.172Z,100879.53
2023-01-03T05:59:36.319Z,100862.63
2023-01-03T06:02:05.699Z,100882.78
2023-01-03T06:04:33.950Z,100886.34
2023-01-03T06:07:01.944Z,100883.34
2023-01-03T06:09:31.826Z,100900.72
2023-01-03T06:11:59.717Z,100901.41
2023-01-03T06:14:27.643Z,100899.50
2023-01-03T06:17:13.286Z,100904.66
2023-01-03T06:19:42.620Z,100920.13
2023-01-03T06:22:11.331Z,100924.38
2023-01-03T06:24:39.539Z,100925.09
2023-01-03T06:27:07.586Z,100827.84
2023-01-03T06:29:35.550Z,100938.88
2023-01-03T06:32:08.859Z,100929.69
2023-01-03T06:34:37.693Z,100946.50
2023-01-03T06:37:07.159Z,100958.50
2023-01-03T06:39:34.999Z,100966.22
2023-01-03T06:42:23.332Z,100967.31
2023-01-03T06:45:05.366Z,100943.59
2023-01-03T06:47:50.696Z,100987.75
2023-01-03T06:50:35.770Z,100987.63
2023-01-03T06:53:14.587Z,100996.38
2023-01-03T06:55:43.436Z,100981.25
2023-01-03T06:58:12.092Z,101002.50
2023-01-03T07:00:41.750Z,101004.66
2023-01-03T07:03:11.684Z,101018.78
2023-01-03T07:05:39.830Z,101003.78
2023-01-03T07:08:09.137Z,101004.22
2023-01-03T07:10:36.999Z,101026.28
2023-01-03T07:13:23.011Z,101003.66
2023-01-03T07:15:51.107Z,101036.59
2023-01-03T07:18:19.151Z,101031.00
2023-01-03T07:20:47.551Z,101042.44
2023-01-03T07:23:16.785Z,101043.22
2023-01-03T07:25:44.821Z,101057.09
2023-01-03T07:28:14.781Z,101061.38
2023-01-03T07:30:45.299Z,101050.06
2023-01-03T07:33:16.275Z,101071.91
2023-01-03T07:35:44.588Z,101053.84
2023-01-03T07:38:13.882Z,101075.03
2023-01-03T07:40:43.286Z,101078.41
2023-01-03T07:43:30.182Z,100957.91
2023-01-03T07:45:58.502Z,101088.47
2023-01-03T07:48:26.325Z,101099.69
2023-01-03T07:50:58.056Z,101065.50
2023-01-03T07:53:26.461Z,101112.56
2023-01-03T07:55:55.769Z,101097.56
2023-01-03T07:58:23.601Z,101117.97
2023-01-03T08:00:51.631Z,101112.69
2023-01-03T08:03:19.455Z,101123.00
2023-01-03T08:05:47.283Z,101124.69
2023-01-03T08:08:15.408Z,101114.56
2023-01-03T08:11:01.015Z,101127.81
2023-01-03T08:13:30.450Z,101136.31
2023-01-03T08:15:58.457Z,101137.00
2023-01-03T08:18:28.554Z,101141.38
2023-01-03T08:20:57.616Z,101145.72
2023-01-03T08:23:26.318Z,101147.31
2023-01-03T08:26:01.368Z,101140.66
2023-01-03T08:28:31.074Z,101160.19
2023-01-03T08:31:00.152Z,101129.31
2023-01-03T08:33:31.103Z,101160.72
2023-01-03T08:36:07.129Z,101159.72
2023-01-03T08:38:40.795Z,101165.44
2023-01-03T08:41:11.250Z,101168.31
2023-01-03T08:43:44.622Z,101106.34
2023-01-03T08:46:15.713Z,101152.34
2023-01-03T08:48:44.416Z,101185.09
2023-01-03T08:51:12.678Z,101191.81
2023-01-03T08:53:40.533Z,101197.28
2023-01-03T08:56:09.371Z,101212.00
2023-01-03T08:58:37.631Z,101203.56
2023-01-03T09:01:08.380Z,101214.53
2023-01-03T09:03:36.605Z,101218.53
2023-01-03T09:06:05.481Z,101223.75
2023-01-03T09:08:34.717Z,101224.41
2023-01-03T09:11:06.038Z,101166.13
2023-01-03T09:13:34.241Z,101240.09
2023-01-03T09:16:03.085Z,101233.28
2023-01-03T09:18:32.442Z,101237.81
2023-01-03T09:21:00.726Z,101221.16
2023-01-03T09:23:28.825Z,101242.00
2023-01-03T09:25:57.007Z,101243.06
2023-01-03T09:28:25.032Z,101252.38
2023-01-03T09:30:53.318Z,101252.91
2023-01-03T09:33:21.269Z,101257.44
2023-01-03T09:35:52.713Z,101263.50
2023-01-03T09:38:20.777Z,101246.19
2023-01-03T09:40:57.373Z,101265.47
2023-01-03T09:43:30.419Z,101268.66
2023-01-03T09:46:01.521Z,101269.16
2023-01-03T09:48:34.047Z,101278.66
2023-01-03T09:51:19.830Z,101283.47
2023-01-03T09:54:11.144Z,101282.50
2023-01-03T09:56:56.923Z,101280.78
2023-01-03T09:59:43.097Z,101271.78
2023-01-03T10:02:46.962Z,101296.16
2023-01-03T10:05:36.504Z,101288.75
2023-01-03T10:08:15.646Z,101292.09
2023-01-03T10:10:52.542Z,101244.53
2023-01-03T10:13:31.180Z,101301.88
2023-01-03T10:16:08.712Z,101285.47
2023-01-03T10:18:59.190Z,101322.84
2023-01-03T10:21:34.099Z,101327.03
2023-01-03T10:24:09.389Z,101321.69
2023-01-03T10:26:37.866Z,101327.28
2023-01-03T10:29:05.709Z,101330.31
2023-01-03T10:31:59.189Z,101248.66
2023-01-03T10:34:27.171Z,101317.69
2023-01-03T10:36:55.173Z,101333.88
2023-01-03T10:39:30.632Z,101341.50
2023-01-03T10:41:59.867Z,101342.16
2023-01-03T10:44:29.976Z,101350.75
2023-01-03T10:47:00.622Z,101191.53
2023-01-03T10:49:30.858Z,101269.63
2023-01-03T10:52:03.858Z,101362.31
2023-01-03T10:54:50.061Z,101369.25
2023-01-03T10:57:43.973Z,101370.25
2023-01-03T11:00:31.667Z,101352.22
2023-01-03T11:03:14.570Z,101385.78
2023-01-03T11:05:44.439Z,101393.09
2023-01-03T11:08:18.895Z,101373.50
2023-01-03T11:10:55.880Z,101401.78
2023-01-03T11:13:26.461Z,101400.63
2023-01-03T11:15:55.531Z,101397.53
2023-01-03T11:18:24.101Z,101342.34
2023-01-03T11:21:00.663Z,101396.22
2023-01-03T11:23:43.261Z,101402.88
2023-01-03T11:26:23.715Z,101406.50
2023-01-03T11:29:21.927Z,101411.63
2023-01-03T11:31:56.245Z,101420.19
2023-01-03T11:35:20.078Z,101429.28
2023-01-03T11:37:35.600Z,101396.88
2023-01-03T11:40:14.496Z,101437.13
2023-01-03T11:42:58.181Z,101439.69
2023-01-03T11:45:48.660Z,101401.13
2023-01-03T11:48:47.267Z,101443.44
2023-01-03T11:51:19.571Z,101454.13
2023-01-03T11:54:03.134Z,101468.75
2023-01-03T11:56:35.208Z,101450.72
2023-01-03T11:59:15.199Z,101467.44
2023-01-03T12:01:56.243Z,101471.81
2023-01-03T12:04:39.052Z,101477.63
2023-01-03T12:07:46.516Z,101474.97
2023-01-03T12:10:09.235Z,101318.06
2023-01-03T12:13:04.879Z,101466.63
2023-01-03T12:15:45.739Z,101447.66
2023-01-03T12:18:21.922Z,101485.56
2023-01-03T12:20:56.137Z,101441.44
2023-01-03T12:23:33.557Z,101405.16
2023-01-03T12:26:05.642Z,101484.66
2023-01-03T12:28:40.767Z,101488.63
2023-01-03T12:31:23.140Z,101499.44
2023-01-03T12:34:03.442Z,101503.94
2023-01-03T12:36:42.504Z,101511.53
2023-01-03T12:39:33.346Z,101522.38
2023-01-03T12:42:08.143Z,101506.81
2023-01-03T12:44:40.807Z,101532.94
2023-01-03T12:47:20.465Z,101527.91
2023-01-03T12:49:54.905Z,101522.13
2023-01-03T12:52:25.942Z,101510.53
2023-01-03T12:54:59.775Z,101481.69
2023-01-03T12:57:47.489Z,101506.16
2023-01-03T13:00:26.641Z,101532.78
2023-01-03T13:03:00.913Z,101513.97
2023-01-03T13:05:34.033Z,101535.66
2023-01-03T13:08:10.595Z,101531.88
2023-01-03T13:10:42.128Z,101518.13
2023-01-03T13:13:16.492Z,101541.88
2023-01-03T13:15:46.327Z,101544.41
2023-01-03T13:18:31.224Z,101547.19
2023-01-03T13:20:59.972Z,101552.81
2023-01-03T13:23:35.081Z,101559.97
2023-01-03T13:26:25.499Z,101553.50
2023-01-03T13:28:54.430Z,101556.69
2023-01-03T13:32:02.734Z,101507.59
2023-01-03T13:34:36.383Z,101564.88
2023-01-03T13:37:19.200Z,101563.44
2023-01-03T13:40:04.627Z,101530.75
2023-01-03T13:42:38.109Z,101588.41
2023-01-03T13:45:56.612Z,101590.84
2023-01-03T13:48:27.623Z,101582.88
2023-01-03T13:51:37.362Z,101589.25
2023-01-03T13:54:27.149Z,101597.72
2023-01-03T13:57:03.028Z,101572.31
2023-01-03T13:59:36.015Z,101592.16
2023-01-03T14:02:34.766Z,101590.50
2023-01-03T14:05:25.764Z,101600.47
2023-01-03T14:08:05.928Z,101512.94
2023-01-03T14:10:54.668Z,101528.47
2023-01-03T14:13:38.819Z,101602.97
2023-01-03T14:16:18.299Z,101598.44
2023-01-03T14:18:50.500Z,101544.19
2023-01-03T14:21:26.214Z,101617.78
2023-01-03T14:24:01.224Z,101600.28
2023-01-03T14:26:32.933Z,101621.59
2023-01-03T14:29:01.243Z,101625.66
2023-01-03T14:31:29.261Z,101623.84
2023-01-03T14:33:59.099Z,101569.13
2023-01-03T14:36:27.667Z,101623.94
2023-01-03T14:38:56.969Z,101642.28
2023-01-03T14:41:29.217Z,101648.19
2023-01-03T14:44:03.928Z,101600.00
2023-01-03T14:46:33.329Z,101493.78
2023-01-03T14:49:06.477Z,101653.63
2023-01-03T14:51:36.332Z,101650.16
2023-01-03T14:54:05.243Z,101616.75
2023-01-03T14:56:34.193Z,101629.25
2023-01-03T14:59:07.972Z,101661.31
2023-01-03T15:01:36.260Z,101658.91
2023-01-03T15:04:06.163Z,101659.66
2023-01-03T15:06:34.540Z,101662.22
2023-01-03T15:09:19.672Z,101588.16
2023-01-03T15:12:00.469Z,101663.13
2023-01-03T15:14:32.494Z,101670.84
2023-01-03T15:17:08.192Z,101673.69
2023-01-03T15:19:38.622Z,101678.81
2023-01-03T15:22:13.692Z,101681.38
2023-01-03T15:24:43.665Z,101675.50
2023-01-03T15:27:34.455Z,101686.03
2023-01-03T15:30:26.021Z,101683.47
2023-01-03T15:33:00.098Z,101690.41
2023-01-03T15:35:34.456Z,101669.34
2023-01-03T15:38:04.452Z,101605.50
2023-01-03T15:40:32.908Z,101702.63
2023-01-03T15:43:22.277Z,101641.78
2023-01-03T15:46:02.421Z,101699.94
2023-01-03T15:48:35.373Z,101702.50
2023-01-03T15:51:04.391Z,101684.28
2023-01-03T15:53:39.204Z,101703.41
2023-01-03T15:56:17.940Z,101714.56
2023-01-03T15:58:46.566Z,101675.69
2023-01-03T16:01:16.936Z,101725.59
2023-01-03T16:03:45.216Z,101731.47
2023-01-03T16:06:13.249Z,101731.31
2023-01-03T16:08:42.705Z,101732.22
2023-01-03T16:11:19.539Z,101661.75
2023-01-03T16:13:52.954Z,101653.00
2023-01-03T16:16:26.391Z,101679.22
2023-01-03T16:18:55.627Z,101737.81
2023-01-03T16:21:24.660Z,101739.78
2023-01-03T16:23:52.776Z,101752.75
2023-01-03T16:26:20.941Z,101755.16
2023-01-03T16:28:49.020Z,101761.22
2023-01-03T16:31:19.433Z,101769.06
2023-01-03T16:33:50.167Z,101765.44
2023-01-03T16:36:34.951Z,101765.59
2023-01-03T16:39:03.287Z,101764.69
2023-01-03T16:41:31.494Z,101764.53
2023-01-03T16:43:59.653Z,101677.59
2023-01-03T16:46:29.315Z,101778.25
2023-01-03T16:49:00.719Z,101747.81
2023-01-03T16:51:31.466Z,101754.00
2023-01-03T16:54:00.408Z,101749.31
2023-01-03T16:56:28.759Z,101641.28
2023-01-03T16:58:56.673Z,101769.06
2023-01-03T17:01:26.711Z,101767.25
2023-01-03T17:03:54.720Z,101773.91
2023-01-03T17:06:37.488Z,101776.31
2023-01-03T17:09:13.356Z,101620.19
2023-01-03T17:11:41.550Z,101774.94
2023-01-03T17:14:17.501Z,101722.66
2023-01-03T17:16:46.194Z,101776.63
2023-01-03T17:20:01.222Z,101769.81
2023-01-03T17:22:15.030Z,101781.59
2023-01-03T17:24:43.596Z,101778.13
2023-01-03T17:27:17.766Z,101783.56
2023-01-03T17:29:47.383Z,101783.56
2023-01-03T17:32:18.680Z,101792.91
2023-01-03T17:34:46.537Z,101793.66
2023-01-03T17:37:19.618Z,101797.91
2023-01-03T17:39:52.483Z,101805.28
2023-01-03T17:42:20.633Z,101806.03
2023-01-03T17:45:03.501Z,101810.13
2023-01-03T17:47:49.320Z,101811.63
2023-01-03T17:50:17.428Z,101785.69
2023-01-03T17:52:50.280Z,101552.72
2023-01-03T17:55:25.190Z,101821.59
2023-01-03T17:57:53.578Z,101821.44
2023-01-03T18:00:24.488Z,101817.66
2023-01-03T18:02:54.350Z,101732.31
2023-01-03T18:05:28.041Z,101824.16
2023-01-03T18:07:59.874Z,101815.88
2023-01-03T18:10:32.853Z,101823.25
2023-01-03T18:13:01.062Z,101823.09
2023-01-03T18:15:28.942Z,101830.03
2023-01-03T18:17:56.928Z,101798.97
2023-01-03T18:20:26.656Z,101843.75
2023-01-03T18:22:54.711Z,101847.69
2023-01-03T18:25:26.254Z,101851.75
2023-01-03T18:27:57.699Z,101858.41
2023-01-03T18:30:25.794Z,101859.91
2023-01-03T18:32:53.673Z,101840.59
2023-01-03T18:35:29.720Z,101849.94
2023-01-03T18:37:57.815Z,101835.75
2023-01-03T18:40:28.346Z,101856.41
2023-01-03T18:43:12.896Z,101855.34
2023-01-03T18:45:42.269Z,101849.16
2023-01-03T18:48:17.916Z,101876.47
2023-01-03T18:50:51.901Z,101878.13
2023-01-03T18:53:26.987Z,101877.81
2023-01-03T18:55:56.428Z,101857.16
2023-01-03T18:58:31.697Z,101870.72
2023-01-03T19:00:59.833Z,101867.84
2023-01-03T19:03:29.687Z,101799.19
2023-01-03T19:05:59.700Z,101877.50
2023-01-03T19:08:30.631Z,101858.31
2023-01-03T19:11:05.790Z,101876.44
2023-01-03T19:13:50.686Z,101872.81
2023-01-03T19:16:20.938Z,101760.97
2023-01-03T19:18:49.511Z,101768.66
2023-01-03T19:21:19.094Z,101876.56
2023-01-03T19:23:49.315Z,101828.09
2023-01-03T19:26:27.090Z,101880.63
2023-01-03T19:28:58.226Z,101885.59
2023-01-03T19:31:28.020Z,101878.50
2023-01-03T19:33:55.938Z,101886.19
2023-01-03T19:36:24.174Z,101884.97
2023-01-03T19:38:52.220Z,101864.88
2023-01-03T19:41:21.958Z,101776.25
2023-01-03T19:43:50.807Z,101868.94
2023-01-03T19:46:19.437Z,101895.66
2023-01-03T19:48:47.316Z,101863.94
2023-01-03T19:51:15.170Z,101896.25
2023-01-03T19:53:43.381Z,101890.81
2023-01-03T19:56:23.920Z,101895.94
2023-01-03T19:58:54.474Z,101907.69
2023-01-03T20:01:26.042Z,101909.19
2023-01-03T20:03:54.500Z,101906.47
2023-01-03T20:06:22.636Z,101915.06
2023-01-03T20:08:50.517Z,101901.03
2023-01-03T20:11:22.593Z,101909.63
2023-01-03T20:13:50.960Z,101885.31
2023-01-03T20:16:18.901Z,101904.03
2023-01-03T20:18:48.127Z,101901.31
2023-01-03T20:21:23.048Z,101885.75
2023-01-03T20:23:54.084Z,101892.41
2023-01-03T20:26:26.287Z,101900.84
2023-01-03T20:28:56.385Z,101905.19
2023-01-03T20:31:24.616Z,101904.13
2023-01-03T20:33:53.230Z,101900.66
2023-01-03T20:36:24.035Z,101811.28
2023-01-03T20:38:55.764Z,101901.41
2023-01-03T20:41:36.496Z,101839.50
2023-01-03T20:44:07.356Z,101844.75
2023-01-03T20:46:35.854Z,101903.66
2023-01-03T20:49:04.965Z,101906.06
2023-01-03T20:51:32.822Z,101916.31
2023-01-03T20:54:00.834Z,101912.84
2023-01-03T20:56:32.900Z,101881.56
2023-01-03T20:59:00.987Z,101922.19
2023-01-03T21:01:28.981Z,101921.28
2023-01-03T21:03:57.615Z,101922.19
2023-01-03T21:06:29.553Z,101852.81
2023-01-03T21:08:57.933Z,101911.94
2023-01-03T21:11:28.331Z,101913.59
2023-01-03T21:13:59.292Z,101913.59
2023-01-03T21:16:31.323Z,101889.13
2023-01-03T21:19:03.264Z,101845.03
2023-01-03T21:21:32.670Z,101890.28
2023-01-03T21:24:01.336Z,101755.34
2023-01-03T21:26:29.261Z,101803.91
2023-01-03T21:28:59.160Z,101809.66
2023-01-03T21:31:27.805Z,101919.88
2023-01-03T21:33:55.859Z,101911.31
2023-01-03T21:36:26.409Z,101913.69
2023-01-03T21:38:54.401Z,101920.31
2023-01-03T21:41:24.776Z,101912.31
2023-01-03T21:43:55.918Z,101921.66
2023-01-03T21:46:26.339Z,101916.53
2023-01-03T21:48:54.978Z,101925.88
2023-01-03T21:51:37.337Z,101934.28
2023-01-03T21:54:06.959Z,101926.44
2023-01-03T21:56:36.253Z,101862.78
2023-01-03T21:59:04.533Z,101937.72
2023-01-03T22:01:54.129Z,101924.84
2023-01-03T22:04:21.500Z,101905.59
2023-01-03T22:06:49.344Z,101948.69
2023-01-03T22:09:31.143Z,101952.75
2023-01-03T22:11:59.060Z,101959.34
2023-01-03T22:14:26.922Z,101965.22
2023-01-03T22:16:56.303Z,101954.06
2023-01-03T22:19:24.327Z,101950.44
2023-01-03T22:21:52.199Z,101945.91
2023-01-03T22:24:20.165Z,101941.38
2023-01-03T22:26:48.250Z,101924.56
2023-01-03T22:29:16.165Z,101928.19
2023-01-03T22:31:47.225Z,101929.34
2023-01-03T22:34:16.973Z,101929.78
2023-01-03T22:36:44.813Z,101956.66
2023-01-03T22:39:12.823Z,101922.47
2023-01-03T22:41:40.776Z,101967.63
2023-01-03T22:44:08.609Z,101968.38
2023-01-03T22:46:36.635Z,101960.53
2023-01-03T22:49:04.618Z,101980.09
2023-01-03T22:51:33.845Z,101936.06
2023-01-03T22:54:01.786Z,101963.84
2023-01-03T22:56:29.712Z,101972.28
2023-01-03T22:58:57.590Z,101968.81
2023-01-03T23:01:28.349Z,101941.91
2023-01-03T23:03:59.937Z,101949.91
2023-01-03T23:06:30.047Z,101953.38
2023-01-03T23:08:59.404Z,101952.38
2023-01-03T23:11:47.046Z,101955.69
2023-01-03T23:14:17.202Z,101958.09
2023-01-03T23:16:45.511Z,101961.38
2023-01-03T23:19:15.165Z,101940.19
2023-01-03T23:21:45.402Z,101951.50
2023-01-03T23:24:16.542Z,101942.16
2023-01-03T23:26:45.262Z,101925.34
2023-01-03T23:29:14.260Z,101954.72
2023-01-03T23:31:42.546Z,101958.00
2023-01-03T23:34:10.992Z,101939.38
2023-01-03T23:36:38.860Z,101909.78
2023-01-03T23:39:06.885Z,101960.25
2023-01-03T23:41:36.404Z,101966.09
2023-01-03T23:44:04.224Z,101967.00
2023-01-03T23:46:32.360Z,101964.28
2023-01-03T23:49:00.324Z,101954.78
2023-01-03T23:51:28.570Z,101958.69
2023-01-03T23:53:56.644Z,101952.66
2023-01-03T23:56:25.488Z,101948.84
2023-01-03T23:58:54.791Z,101910.81
